Time;durP1;ratioP1;P1;durP2;ratioP2;P2;SDS_P1;SDS_P2;PMS_P1;PMS_P2;Temp;Humidity;BMP_temperature;BMP_pressure;BME280_temperature;BME280_humidity;BME280_pressure;Samples;Min_cycle;Max_cycle;Signal;HPM_P1;HPM_P2
2022/11/03 00:00:11;;;;;;;3.38;1.40;;;9.70;1.00;;;;;;5028904;28;20220;-63
2022/11/03 00:02:37;;;;;;;4.25;1.92;;;9.70;1.00;;;;;;5022623;28;20772;-63
2022/11/03 00:06:03;;;;;;;6.93;1.75;;;9.70;1.00;;;;;;5039999;28;21081;-63
2022/11/03 00:07:52;;;;;;;8.30;2.10;;;9.70;1.00;;;;;;5018491;28;20286;-63
2022/11/03 00:10:20;;;;;;;10.90;2.30;;;9.70;1.00;;;;;;5037015;28;20192;-64
2022/11/03 00:12:47;;;;;;;5.22;1.90;;;9.70;1.00;;;;;;5016106;28;20721;-63
2022/11/03 00:15:14;;;;;;;4.53;1.75;;;9.70;1.00;;;;;;5036804;28;20685;-64
2022/11/03 00:17:41;;;;;;;7.20;2.38;;;9.80;1.00;;;;;;5038512;28;20201;-64
2022/11/03 00:20:10;;;;;;;3.97;2.13;;;9.80;1.00;;;;;;5036956;28;20201;-63
2022/11/03 00:22:36;;;;;;;6.32;1.98;;;9.90;1.00;;;;;;5035260;28;20647;-63
2022/11/03 00:25:04;;;;;;;4.22;1.95;;;9.90;1.00;;;;;;5026594;28;20200;-64
2022/11/03 00:27:32;;;;;;;5.20;1.48;;;10.00;1.00;;;;;;5027668;28;20228;-63
2022/11/03 00:29:59;;;;;;;9.43;1.90;;;9.90;1.00;;;;;;5024981;28;20227;-64
2022/11/03 00:32:26;;;;;;;9.60;1.80;;;9.90;1.00;;;;;;5027685;28;20205;-64
2022/11/03 00:34:52;;;;;;;4.75;1.67;;;9.90;1.00;;;;;;5027749;28;20235;-63
2022/11/03 00:37:19;;;;;;;5.10;1.70;;;9.80;1.00;;;;;;5034172;28;20209;-63
2022/11/03 00:39:46;;;;;;;6.93;1.80;;;9.90;1.00;;;;;;5027715;28;20209;-63
2022/11/03 00:42:13;;;;;;;7.35;1.70;;;9.90;1.00;;;;;;5035233;28;20217;-64
2022/11/03 00:44:41;;;;;;;10.80;2.35;;;10.00;1.00;;;;;;5022974;28;20220;-64
2022/11/03 00:47:07;;;;;;;5.30;1.88;;;10.00;1.00;;;;;;5044943;28;20206;-63
2022/11/03 00:49:34;;;;;;;5.13;1.65;;;10.00;1.00;;;;;;5006693;28;22945;-63
2022/11/03 00:52:01;;;;;;;5.72;1.88;;;10.00;1.00;;;;;;5035264;28;20216;-64
2022/11/03 00:54:28;;;;;;;6.65;2.03;;;10.00;1.00;;;;;;5026279;28;20224;-63
2022/11/03 00:56:54;;;;;;;6.32;1.65;;;10.00;1.00;;;;;;5027401;28;20208;-63
2022/11/03 00:59:21;;;;;;;5.90;2.03;;;10.00;1.00;;;;;;5012581;28;20209;-63
2022/11/03 01:01:49;;;;;;;10.10;1.60;;;10.00;1.00;;;;;;5024868;28;20227;-64
2022/11/03 01:07:01;;;;;;;4.07;1.60;;;10.00;1.00;;;;;;5037358;28;20270;-63
2022/11/03 01:09:30;;;;;;;6.65;2.03;;;10.00;1.00;;;;;;5035706;28;20247;-64
2022/11/03 01:11:59;;;;;;;7.70;2.00;;;10.00;1.00;;;;;;5040304;28;20205;-63
2022/11/03 01:14:29;;;;;;;5.22;1.83;;;10.00;1.00;;;;;;5018936;28;20232;-64
2022/11/03 01:16:57;;;;;;;5.22;1.90;;;10.00;1.00;;;;;;5036556;28;21140;-63
2022/11/03 01:19:24;;;;;;;8.35;1.92;;;10.00;1.00;;;;;;5022266;28;20553;-63
2022/11/03 01:21:51;;;;;;;6.60;1.90;;;10.00;1.00;;;;;;5048210;28;20670;-63
2022/11/03 01:24:18;;;;;;;5.30;1.80;;;10.00;1.00;;;;;;5031332;28;20196;-63
2022/11/03 01:26:45;;;;;;;6.25;2.05;;;10.00;1.00;;;;;;5016436;28;20209;-63
2022/11/03 01:29:12;;;;;;;5.13;1.60;;;10.20;1.00;;;;;;5036220;28;20710;-63
2022/11/03 01:31:38;;;;;;;5.80;1.48;;;10.00;1.00;;;;;;5011433;28;20765;-64
2022/11/03 01:34:07;;;;;;;7.97;2.33;;;10.00;1.00;;;;;;5011800;28;21531;-63
2022/11/03 01:36:33;;;;;;;7.00;2.08;;;10.10;1.00;;;;;;5045379;28;20193;-63
2022/11/03 01:39:00;;;;;;;8.10;1.85;;;10.00;1.00;;;;;;5030776;28;20205;-64
2022/11/03 01:41:28;;;;;;;4.88;1.88;;;10.10;1.00;;;;;;5034015;28;20231;-63
2022/11/03 01:44:33;;;;;;;7.03;1.95;;;10.10;1.00;;;;;;5032929;28;20206;-63
2022/11/03 01:47:08;;;;;;;8.43;2.10;;;10.00;1.00;;;;;;4997619;28;20208;-63
2022/11/03 01:49:43;;;;;;;8.65;1.92;;;10.00;1.00;;;;;;5016723;28;20721;-63
2022/11/03 01:52:15;;;;;;;4.45;1.70;;;10.00;1.00;;;;;;5047531;28;21337;-63
2022/11/03 01:54:44;;;;;;;9.25;2.00;;;10.10;1.00;;;;;;5032222;28;20212;-64
2022/11/03 01:57:17;;;;;;;9.68;2.17;;;10.00;1.00;;;;;;5025048;28;20215;-63
2022/11/03 01:59:46;;;;;;;5.57;1.85;;;10.00;1.00;;;;;;5045298;28;20204;-63
2022/11/03 02:02:13;;;;;;;10.35;2.45;;;10.00;1.00;;;;;;5003491;28;20607;-63
2022/11/03 02:04:42;;;;;;;3.55;1.48;;;10.00;1.00;;;;;;5029745;28;20205;-63
2022/11/03 02:07:15;;;;;;;5.93;1.77;;;10.00;1.00;;;;;;5031862;28;20200;-63
2022/11/03 02:09:42;;;;;;;9.55;1.90;;;10.00;1.00;;;;;;5022064;28;20220;-64
2022/11/03 02:12:10;;;;;;;7.88;2.20;;;10.00;1.00;;;;;;5023079;28;20204;-63
2022/11/03 02:14:40;;;;;;;4.95;1.60;;;9.90;1.00;;;;;;5043475;28;20719;-63
2022/11/03 02:17:11;;;;;;;4.97;2.00;;;9.90;1.00;;;;;;5011636;28;20205;-64
2022/11/03 02:19:43;;;;;;;7.88;1.92;;;9.90;1.00;;;;;;5032332;28;20205;-63
2022/11/03 02:22:33;;;;;;;6.07;2.00;;;9.90;1.00;;;;;;5019510;28;20206;-63
2022/11/03 02:25:11;;;;;;;3.80;1.77;;;9.90;1.00;;;;;;5019116;28;20197;-64
2022/11/03 02:27:39;;;;;;;8.70;2.15;;;9.90;1.00;;;;;;5032468;28;20224;-63
2022/11/03 02:30:08;;;;;;;9.65;1.98;;;9.80;1.00;;;;;;5038480;28;20232;-65
2022/11/03 02:32:41;;;;;;;9.13;2.05;;;9.80;1.00;;;;;;5021771;28;20209;-64
2022/11/03 02:35:14;;;;;;;3.72;1.70;;;9.80;1.00;;;;;;5019673;28;20226;-63
2022/11/03 02:37:45;;;;;;;4.25;1.77;;;9.80;1.00;;;;;;5039258;28;21081;-64
2022/11/03 02:40:16;;;;;;;5.38;1.42;;;9.80;1.00;;;;;;5040553;28;20640;-63
2022/11/03 02:42:47;;;;;;;7.60;1.70;;;9.80;1.00;;;;;;5017861;28;20304;-64
2022/11/03 02:45:18;;;;;;;5.90;1.60;;;9.80;1.00;;;;;;5041432;28;20217;-63
2022/11/03 02:47:46;;;;;;;6.22;1.80;;;9.80;1.00;;;;;;5012437;28;20229;-65
2022/11/03 02:50:13;;;;;;;8.05;1.65;;;9.80;1.00;;;;;;5032879;28;20282;-64
2022/11/03 02:52:42;;;;;;;9.27;2.33;;;9.80;1.00;;;;;;5027888;28;20216;-63
2022/11/03 02:55:15;;;;;;;4.93;1.73;;;9.80;1.00;;;;;;5031095;28;20224;-63
2022/11/03 02:57:50;;;;;;;7.65;1.63;;;9.80;1.00;;;;;;5032418;28;20216;-63
2022/11/03 03:00:18;;;;;;;2.88;1.55;;;9.80;1.00;;;;;;5040397;28;20230;-63
2022/11/03 03:02:52;;;;;;;4.68;1.35;;;9.70;1.00;;;;;;5018888;28;20232;-64
2022/11/03 03:05:23;;;;;;;7.72;2.40;;;9.70;1.00;;;;;;5032011;28;20220;-63
2022/11/03 03:07:54;;;;;;;8.82;1.63;;;9.70;1.00;;;;;;5021407;28;20228;-63
2022/11/03 03:10:24;;;;;;;8.52;2.05;;;9.70;1.00;;;;;;5029395;28;20240;-63
2022/11/03 03:12:55;;;;;;;8.55;1.20;;;9.70;1.00;;;;;;5025311;28;20237;-63
2022/11/03 03:15:26;;;;;;;6.63;1.58;;;9.70;1.00;;;;;;5029203;28;20212;-63
2022/11/03 03:18:00;;;;;;;6.10;1.58;;;9.70;1.00;;;;;;5026757;28;20201;-63
2022/11/03 03:20:33;;;;;;;6.78;2.17;;;9.70;1.00;;;;;;5031212;28;20224;-64
2022/11/03 03:23:07;;;;;;;6.30;1.75;;;9.60;1.00;;;;;;5024447;28;20258;-63
2022/11/03 03:25:38;;;;;;;8.55;1.55;;;9.70;1.00;;;;;;5028629;28;20216;-64
2022/11/03 03:28:10;;;;;;;6.60;1.58;;;9.70;1.00;;;;;;5032335;28;20212;-63
2022/11/03 03:30:38;;;;;;;5.88;1.63;;;9.70;1.00;;;;;;5031697;28;20323;-64
2022/11/03 03:33:07;;;;;;;7.07;1.63;;;9.80;1.00;;;;;;5047383;28;20221;-65
2022/11/03 03:35:36;;;;;;;3.30;1.50;;;9.80;1.00;;;;;;5017345;28;20212;-63
2022/11/03 03:38:07;;;;;;;3.40;1.40;;;9.90;1.00;;;;;;5023017;28;20235;-63
2022/11/03 03:40:37;;;;;;;7.82;2.03;;;9.80;1.00;;;;;;5032627;28;20972;-63
2022/11/03 03:43:08;;;;;;;6.53;1.30;;;9.80;1.00;;;;;;5046949;28;20227;-63
2022/11/03 03:45:36;;;;;;;9.45;2.13;;;9.80;1.00;;;;;;5022359;28;20204;-64
2022/11/03 03:48:04;;;;;;;5.38;2.00;;;9.80;1.00;;;;;;5047309;28;20216;-63
2022/11/03 03:50:35;;;;;;;4.70;1.30;;;9.80;1.00;;;;;;5007126;28;20725;-63
2022/11/03 03:53:03;;;;;;;4.25;1.70;;;9.80;1.00;;;;;;5020206;28;20220;-63
2022/11/03 03:55:35;;;;;;;6.75;1.75;;;9.80;1.00;;;;;;5037329;28;20708;-64
2022/11/03 03:58:03;;;;;;;9.48;2.25;;;9.80;1.00;;;;;;5032530;28;20379;-62
2022/11/03 04:00:31;;;;;;;7.82;2.15;;;9.80;1.00;;;;;;5024685;28;20205;-63
2022/11/03 04:02:58;;;;;;;9.07;1.95;;;9.80;1.00;;;;;;5029825;28;20207;-63
2022/11/03 04:05:25;;;;;;;7.88;2.00;;;9.80;1.00;;;;;;5021227;28;20990;-63
2022/11/03 04:07:52;;;;;;;4.32;1.60;;;9.80;1.00;;;;;;5014508;28;20611;-63
2022/11/03 04:10:22;;;;;;;8.40;1.83;;;9.80;1.00;;;;;;5042710;28;21022;-63
2022/11/03 04:23:51;;;;;;;5.32;1.60;;;9.80;1.00;;;;;;5015763;28;20211;-63
2022/11/03 04:26:21;;;;;;;7.13;1.60;;;9.70;1.00;;;;;;5033914;28;20213;-63
2022/11/03 04:28:49;;;;;;;4.22;1.63;;;9.70;1.00;;;;;;5027692;28;20374;-63
2022/11/03 04:31:18;;;;;;;6.55;1.58;;;9.70;1.00;;;;;;5012071;28;20221;-64
2022/11/03 04:33:46;;;;;;;3.85;1.65;;;9.70;1.00;;;;;;5021823;28;20197;-63
2022/11/03 04:36:18;;;;;;;9.70;1.77;;;9.80;1.00;;;;;;5002696;28;20220;-63
2022/11/03 04:38:45;;;;;;;3.72;2.17;;;9.80;1.00;;;;;;5012018;28;20232;-63
2022/11/03 04:41:16;;;;;;;6.80;1.75;;;9.80;1.00;;;;;;5034661;28;20255;-63
2022/11/03 04:43:45;;;;;;;5.35;1.75;;;9.80;1.00;;;;;;5029428;28;20205;-63
2022/11/03 04:46:13;;;;;;;5.20;1.70;;;9.80;1.00;;;;;;5019199;28;20217;-64
2022/11/03 04:48:42;;;;;;;5.28;1.83;;;9.80;1.00;;;;;;5030647;28;20227;-63
2022/11/03 04:51:15;;;;;;;5.18;1.65;;;9.70;1.00;;;;;;5009353;28;20237;-64
2022/11/03 04:53:48;;;;;;;5.00;1.85;;;9.80;1.00;;;;;;5009442;28;20205;-64
2022/11/03 04:56:17;;;;;;;11.30;1.77;;;9.80;1.00;;;;;;5032458;28;20207;-63
2022/11/03 04:58:44;;;;;;;10.00;1.58;;;9.80;1.00;;;;;;5026770;28;21484;-63
2022/11/03 05:01:13;;;;;;;4.82;1.63;;;9.70;1.00;;;;;;5023585;28;20224;-63
2022/11/03 05:03:43;;;;;;;7.45;2.28;;;9.80;1.00;;;;;;5020241;28;21243;-63
2022/11/03 05:06:13;;;;;;;5.75;1.50;;;9.70;1.00;;;;;;5010423;28;20328;-64
2022/11/03 05:08:40;;;;;;;6.80;1.65;;;9.70;1.00;;;;;;5027970;28;20715;-63
2022/11/03 05:11:15;;;;;;;7.28;1.60;;;9.70;2.50;;;;;;5012073;28;22162;-63
2022/11/03 05:13:41;;;;;;;6.55;2.20;;;9.70;3.40;;;;;;5032461;28;20237;-63
2022/11/03 05:16:09;;;;;;;4.38;1.73;;;9.60;5.10;;;;;;5003226;28;20233;-63
2022/11/03 05:18:38;;;;;;;7.28;1.77;;;9.60;8.40;;;;;;5014412;28;20233;-63
2022/11/03 05:21:09;;;;;;;8.43;1.92;;;9.70;11.20;;;;;;5015616;28;20211;-63
2022/11/03 05:23:39;;;;;;;4.53;1.25;;;9.60;12.20;;;;;;5006996;28;20220;-63
2022/11/03 05:26:11;;;;;;;9.25;2.08;;;9.60;16.70;;;;;;5004054;28;20217;-63
2022/11/03 05:28:41;;;;;;;8.23;1.90;;;9.60;18.40;;;;;;5025104;28;20232;-63
2022/11/03 05:31:20;;;;;;;7.95;2.28;;;9.60;18.00;;;;;;5031249;28;20233;-63
2022/11/03 05:33:48;;;;;;;6.80;1.60;;;9.60;20.50;;;;;;5025671;28;20216;-63
2022/11/03 05:36:21;;;;;;;7.28;1.63;;;9.60;20.40;;;;;;5018819;28;20225;-63
2022/11/03 05:38:48;;;;;;;13.60;2.00;;;9.60;20.40;;;;;;5007664;28;20850;-64
2022/11/03 05:41:19;;;;;;;3.28;1.60;;;9.60;21.80;;;;;;5010855;28;21347;-63
2022/11/03 05:43:54;;;;;;;10.32;2.15;;;9.60;20.90;;;;;;5022643;28;20613;-63
2022/11/03 05:46:21;;;;;;;7.25;2.00;;;9.60;23.10;;;;;;5018942;28;20224;-63
2022/11/03 05:48:49;;;;;;;8.27;2.03;;;9.60;23.90;;;;;;5016916;28;20229;-62
2022/11/03 05:51:21;;;;;;;8.23;1.98;;;9.60;26.80;;;;;;5016992;28;20714;-63
2022/11/03 05:53:53;;;;;;;8.88;1.80;;;9.60;26.90;;;;;;4996377;28;20229;-63
2022/11/03 05:56:23;;;;;;;8.52;1.92;;;9.60;26.00;;;;;;5003389;28;20312;-63
2022/11/03 05:58:52;;;;;;;6.47;2.00;;;9.60;26.40;;;;;;5020247;28;20216;-62
2022/11/03 06:01:24;;;;;;;7.32;1.88;;;9.70;24.50;;;;;;5014625;28;20231;-63
2022/11/03 06:03:51;;;;;;;9.23;1.90;;;9.70;24.30;;;;;;5007428;28;20282;-63
2022/11/03 06:06:23;;;;;;;6.32;1.95;;;9.70;24.00;;;;;;5022912;28;20221;-63
2022/11/03 06:08:50;;;;;;;5.85;1.90;;;9.70;25.30;;;;;;5008601;28;20225;-63
2022/11/03 06:11:26;;;;;;;6.68;1.60;;;9.60;25.10;;;;;;5013829;28;20413;-63
2022/11/03 06:13:56;;;;;;;6.47;1.83;;;9.60;27.00;;;;;;5024218;28;20240;-63
2022/11/03 06:16:42;;;;;;;3.03;1.70;;;9.60;27.30;;;;;;5032062;28;20702;-62
2022/11/03 06:19:31;;;;;;;7.47;1.75;;;9.60;29.00;;;;;;5006333;28;20774;-63
2022/11/03 06:22:06;;;;;;;8.57;1.50;;;9.60;28.80;;;;;;5021862;28;20267;-63
2022/11/03 06:24:34;;;;;;;7.95;1.73;;;9.60;29.60;;;;;;5025016;28;20220;-63
2022/11/03 06:27:00;;;;;;;4.95;1.73;;;9.60;28.80;;;;;;5016434;28;20218;-63
2022/11/03 06:29:32;;;;;;;6.57;1.52;;;9.70;30.50;;;;;;5040132;28;20820;-63
2022/11/03 06:31:59;;;;;;;3.95;1.70;;;9.60;31.10;;;;;;5040450;28;20622;-63
2022/11/03 06:34:41;;;;;;;9.65;1.98;;;9.60;31.80;;;;;;5021226;28;20205;-63
2022/11/03 06:37:22;;;;;;;4.38;1.67;;;9.70;32.30;;;;;;5039178;28;20200;-62
2022/11/03 06:39:50;;;;;;;10.75;2.13;;;9.70;36.30;;;;;;5028781;28;20225;-62
2022/11/03 06:42:21;;;;;;;5.45;1.60;;;9.70;36.10;;;;;;5022234;28;20220;-63
2022/11/03 06:44:50;;;;;;;9.20;2.05;;;9.60;37.50;;;;;;5039178;28;20228;-63
2022/11/03 06:47:22;;;;;;;5.60;1.50;;;9.70;38.70;;;;;;5039395;28;20201;-62
2022/11/03 06:49:50;;;;;;;8.52;2.30;;;9.70;40.70;;;;;;5044826;28;20763;-62
2022/11/03 06:52:25;;;;;;;4.80;1.77;;;9.70;41.20;;;;;;5030958;28;20224;-63
2022/11/03 06:54:59;;;;;;;11.07;2.33;;;9.70;44.60;;;;;;5034101;28;20220;-62
2022/11/03 06:57:27;;;;;;;4.93;1.80;;;9.70;44.50;;;;;;5006575;28;20212;-63
2022/11/03 06:59:55;;;;;;;5.40;1.77;;;9.70;44.00;;;;;;5044957;28;20217;-63
2022/11/03 07:02:50;;;;;;;7.35;2.30;;;9.80;46.20;;;;;;5025308;28;20192;-63
2022/11/03 07:05:22;;;;;;;5.82;1.73;;;9.70;45.60;;;;;;5041771;28;20193;-63
2022/11/03 07:07:52;;;;;;;4.28;1.95;;;9.80;48.60;;;;;;5018153;28;20726;-64
2022/11/03 07:10:19;;;;;;;3.83;1.40;;;9.80;48.00;;;;;;5034501;28;20229;-63
2022/11/03 07:12:46;;;;;;;4.93;1.60;;;9.80;48.60;;;;;;5002023;28;21093;-63
2022/11/03 07:15:22;;;;;;;7.97;2.03;;;9.80;49.80;;;;;;5043525;28;20203;-63
2022/11/03 07:17:49;;;;;;;5.22;1.77;;;9.80;51.00;;;;;;5040056;28;20192;-64
2022/11/03 07:20:17;;;;;;;5.75;1.83;;;9.90;52.80;;;;;;5041307;28;20196;-64
2022/11/03 07:22:46;;;;;;;2.47;1.50;;;9.90;51.50;;;;;;5023363;28;21134;-64
2022/11/03 07:25:18;;;;;;;8.95;2.17;;;9.90;52.40;;;;;;5037527;28;20217;-64
2022/11/03 07:27:48;;;;;;;5.93;1.85;;;9.90;55.10;;;;;;5002725;28;20832;-64
2022/11/03 07:30:20;;;;;;;8.52;1.85;;;10.00;53.30;;;;;;5046212;28;20225;-63
2022/11/03 07:32:49;;;;;;;7.25;2.20;;;10.10;54.50;;;;;;5029781;28;20202;-63
2022/11/03 07:35:28;;;;;;;7.35;1.85;;;10.10;56.30;;;;;;5045447;28;20196;-62
2022/11/03 07:37:55;;;;;;;7.43;1.92;;;10.10;57.50;;;;;;5026877;28;20235;-63
2022/11/03 07:40:25;;;;;;;3.63;1.52;;;10.20;57.90;;;;;;5025901;28;20205;-63
2022/11/03 07:42:57;;;;;;;5.60;1.60;;;10.20;58.10;;;;;;5033641;28;20220;-63
2022/11/03 07:45:37;;;;;;;7.10;2.08;;;10.30;57.40;;;;;;5022560;28;20693;-63
2022/11/03 07:48:15;;;;;;;8.32;2.53;;;10.30;55.80;;;;;;5045315;28;20201;-64
2022/11/03 07:50:42;;;;;;;7.20;1.83;;;10.40;54.00;;;;;;5042133;28;20639;-63
2022/11/03 07:53:14;;;;;;;4.50;1.65;;;10.40;51.70;;;;;;5036675;28;20207;-63
2022/11/03 07:55:44;;;;;;;6.43;2.40;;;10.40;51.20;;;;;;5024197;28;20683;-63
2022/11/03 07:58:21;;;;;;;5.57;1.67;;;10.40;49.80;;;;;;5028200;28;20229;-63
2022/11/03 08:00:48;;;;;;;8.70;2.35;;;10.50;46.80;;;;;;5025144;28;20686;-63
2022/11/03 08:03:27;;;;;;;8.85;1.95;;;10.50;45.40;;;;;;5033154;28;20216;-63
2022/11/03 08:05:53;;;;;;;14.25;2.75;;;10.80;43.90;;;;;;5043130;28;20196;-63
2022/11/03 08:08:20;;;;;;;7.10;1.77;;;10.60;42.00;;;;;;5047471;28;21680;-63
2022/11/03 08:10:49;;;;;;;7.50;2.00;;;10.70;40.10;;;;;;5020517;28;20770;-63
2022/11/03 08:13:15;;;;;;;6.55;1.88;;;10.80;37.40;;;;;;5024027;28;20224;-64
2022/11/03 08:15:42;;;;;;;5.78;1.85;;;10.80;37.10;;;;;;5017377;28;20283;-64
2022/11/03 08:18:09;;;;;;;6.70;1.90;;;10.90;35.10;;;;;;5042006;28;20201;-63
2022/11/03 08:20:36;;;;;;;9.13;1.70;;;10.90;33.30;;;;;;5039004;28;20214;-64
2022/11/03 08:23:03;;;;;;;8.43;2.03;;;11.00;29.80;;;;;;5043691;28;20674;-63
2022/11/03 08:25:30;;;;;;;5.85;1.80;;;11.00;26.90;;;;;;5015538;28;20682;-64
2022/11/03 08:28:00;;;;;;;9.18;1.90;;;11.00;27.80;;;;;;5009525;28;20307;-64
2022/11/03 08:30:27;;;;;;;7.72;2.35;;;11.10;27.20;;;;;;5020704;28;20239;-64
2022/11/03 08:32:54;;;;;;;7.97;2.03;;;11.20;26.10;;;;;;5047115;28;20201;-64
2022/11/03 08:35:21;;;;;;;9.32;1.73;;;11.20;24.00;;;;;;5046867;28;20212;-64
2022/11/03 08:37:47;;;;;;;9.43;2.15;;;11.20;22.50;;;;;;5030817;28;20208;-63
2022/11/03 08:40:14;;;;;;;5.20;1.70;;;11.30;20.80;;;;;;5046840;28;20617;-63
2022/11/03 08:42:41;;;;;;;8.40;2.30;;;11.30;19.10;;;;;;5002855;28;20209;-64
2022/11/03 08:45:11;;;;;;;4.82;1.98;;;11.40;18.80;;;;;;5028706;28;20215;-64
2022/11/03 08:47:38;;;;;;;7.97;2.17;;;11.40;19.00;;;;;;5045736;28;20216;-64
2022/11/03 08:50:06;;;;;;;2.85;1.30;;;11.40;19.90;;;;;;5043365;28;22021;-64
2022/11/03 08:52:33;;;;;;;4.00;1.65;;;11.50;19.20;;;;;;5046579;28;20208;-64
2022/11/03 08:55:00;;;;;;;8.73;1.98;;;11.50;16.70;;;;;;5041821;28;20645;-64
2022/11/03 08:57:27;;;;;;;11.43;2.35;;;11.50;12.80;;;;;;5025747;28;20205;-64
2022/11/03 08:59:55;;;;;;;6.03;1.90;;;11.50;14.90;;;;;;5019093;28;20233;-64
2022/11/03 09:02:23;;;;;;;6.20;1.85;;;11.60;16.90;;;;;;5033474;28;20447;-63
2022/11/03 09:04:50;;;;;;;14.07;2.90;;;11.60;16.60;;;;;;5047694;28;20211;-64
2022/11/03 09:07:17;;;;;;;5.28;1.42;;;11.60;14.90;;;;;;5045116;28;20212;-64
2022/11/03 09:09:43;;;;;;;6.28;1.92;;;11.70;13.90;;;;;;5048519;28;20220;-64
2022/11/03 09:12:10;;;;;;;12.43;2.45;;;11.70;12.70;;;;;;5021852;28;20704;-63
2022/11/03 09:14:37;;;;;;;10.80;2.10;;;11.70;13.40;;;;;;5025986;28;20973;-64
2022/11/03 09:17:04;;;;;;;5.78;1.95;;;11.80;14.40;;;;;;5019310;28;20212;-64
2022/11/03 09:19:32;;;;;;;5.75;1.95;;;11.80;11.90;;;;;;5038345;28;20224;-63
2022/11/03 09:21:59;;;;;;;6.57;1.90;;;11.80;11.00;;;;;;5042926;28;20971;-63
2022/11/03 09:24:26;;;;;;;5.40;1.70;;;11.90;11.40;;;;;;5029827;28;20644;-65
2022/11/03 09:26:53;;;;;;;7.32;2.00;;;11.90;9.40;;;;;;5034422;28;20197;-65
2022/11/03 09:29:20;;;;;;;7.43;1.98;;;11.90;9.30;;;;;;5009069;28;20212;-63
2022/11/03 09:31:47;;;;;;;4.50;1.85;;;11.90;7.90;;;;;;5018212;28;20225;-65
2022/11/03 09:34:14;;;;;;;8.98;2.33;;;11.90;6.70;;;;;;5028024;28;20197;-63
2022/11/03 09:36:42;;;;;;;7.78;1.70;;;12.00;6.20;;;;;;5031038;28;20205;-63
2022/11/03 09:39:09;;;;;;;7.65;2.20;;;12.10;4.50;;;;;;5039682;28;20200;-63
2022/11/03 09:41:36;;;;;;;6.63;2.13;;;12.10;1.00;;;;;;5047667;28;20599;-64
2022/11/03 09:44:03;;;;;;;5.47;1.88;;;12.20;1.00;;;;;;5022852;28;20212;-64
2022/11/03 09:46:31;;;;;;;4.60;1.90;;;12.20;1.00;;;;;;5003313;28;20635;-63
2022/11/03 09:48:59;;;;;;;5.53;1.92;;;12.30;1.00;;;;;;5032558;28;20210;-64
2022/11/03 09:51:27;;;;;;;9.30;1.70;;;12.30;1.00;;;;;;5010495;28;20233;-63
2022/11/03 09:53:57;;;;;;;8.57;1.90;;;12.30;1.00;;;;;;5040685;28;20737;-63
2022/11/03 09:56:26;;;;;;;4.07;1.27;;;12.30;1.00;;;;;;5048032;28;20197;-63
2022/11/03 09:58:52;;;;;;;8.35;2.20;;;12.40;1.00;;;;;;5034221;28;20980;-64
2022/11/03 10:01:20;;;;;;;4.10;1.65;;;12.40;1.00;;;;;;4994547;28;20238;-64
2022/11/03 10:03:47;;;;;;;11.00;1.98;;;12.50;1.00;;;;;;5044189;28;20212;-64
2022/11/03 10:06:15;;;;;;;4.55;1.75;;;12.50;1.00;;;;;;5016721;28;20227;-64
2022/11/03 10:08:45;;;;;;;5.15;1.73;;;12.60;1.00;;;;;;5044819;28;20713;-63
2022/11/03 10:11:14;;;;;;;7.10;2.15;;;12.60;1.00;;;;;;5045451;28;20216;-64
2022/11/03 10:13:44;;;;;;;7.60;2.08;;;12.60;1.00;;;;;;5034053;28;23881;-65
2022/11/03 10:16:17;;;;;;;4.95;1.75;;;12.60;1.00;;;;;;5013225;28;20209;-64
2022/11/03 10:18:44;;;;;;;4.78;1.50;;;12.60;1.00;;;;;;5025821;28;20207;-64
2022/11/03 10:21:16;;;;;;;11.48;1.85;;;12.60;1.00;;;;;;5031926;28;20208;-64
2022/11/03 10:23:43;;;;;;;3.50;1.50;;;12.60;1.00;;;;;;5043117;28;20225;-64
2022/11/03 10:26:15;;;;;;;5.70;1.88;;;12.70;1.00;;;;;;5045167;28;20229;-65
2022/11/03 10:28:58;;;;;;;9.38;2.15;;;12.70;1.00;;;;;;5036980;28;20705;-65
2022/11/03 10:31:33;;;;;;;8.00;2.00;;;12.80;1.00;;;;;;5012511;28;20228;-64
2022/11/03 10:34:00;;;;;;;4.88;1.55;;;12.80;1.00;;;;;;5024870;28;20205;-64
2022/11/03 10:36:28;;;;;;;5.80;1.65;;;12.90;1.00;;;;;;5031014;28;20229;-63
2022/11/03 10:38:56;;;;;;;7.05;1.95;;;12.90;1.00;;;;;;5034415;28;20212;-64
2022/11/03 10:41:25;;;;;;;6.43;1.70;;;12.90;1.00;;;;;;5046086;28;20292;-64
2022/11/03 10:44:17;;;;;;;5.85;1.70;;;13.00;1.00;;;;;;5032940;28;20226;-63
2022/11/03 10:46:57;;;;;;;8.50;1.88;;;13.00;1.00;;;;;;5010295;28;20225;-64
2022/11/03 10:49:24;;;;;;;4.13;1.85;;;13.10;1.00;;;;;;5004424;28;20296;-64
2022/11/03 10:51:53;;;;;;;4.38;1.88;;;13.10;1.00;;;;;;5041149;28;20227;-63
2022/11/03 10:54:22;;;;;;;8.48;1.92;;;13.00;1.00;;;;;;5005023;28;20327;-65
2022/11/03 10:56:52;;;;;;;6.25;2.35;;;13.00;1.00;;;;;;5046352;28;20201;-64
2022/11/03 10:59:20;;;;;;;4.40;1.75;;;13.10;1.00;;;;;;5032875;28;20204;-64
2022/11/03 11:01:47;;;;;;;6.20;2.42;;;13.10;1.00;;;;;;5042326;28;20189;-64
2022/11/03 11:04:16;;;;;;;7.63;1.77;;;13.10;1.00;;;;;;5010557;28;20216;-64
2022/11/03 11:06:44;;;;;;;3.50;1.40;;;13.00;1.00;;;;;;5042903;28;20202;-64
2022/11/03 11:09:24;;;;;;;5.78;2.00;;;13.10;1.00;;;;;;5034079;28;21572;-64
2022/11/03 11:12:05;;;;;;;8.43;2.33;;;13.10;1.00;;;;;;5034347;28;20228;-64
2022/11/03 11:14:38;;;;;;;3.30;1.30;;;13.10;1.00;;;;;;5044247;28;20197;-64
2022/11/03 11:17:05;;;;;;;4.00;2.05;;;13.10;1.00;;;;;;5015031;28;20228;-65
2022/11/03 11:20:11;;;;;;;5.65;1.70;;;13.10;1.00;;;;;;5013963;28;20201;-64
2022/11/03 11:22:38;;;;;;;4.22;1.50;;;13.20;1.00;;;;;;5024204;28;20319;-64
2022/11/03 11:25:05;;;;;;;8.93;2.15;;;13.20;1.00;;;;;;5027308;28;20209;-63
2022/11/03 11:27:59;;;;;;;12.38;2.17;;;13.20;1.00;;;;;;5034677;28;20204;-64
2022/11/03 11:31:03;;;;;;;9.00;1.88;;;13.20;1.00;;;;;;5032263;28;20648;-64
2022/11/03 11:33:34;;;;;;;8.02;2.00;;;13.30;1.00;;;;;;5017555;28;20240;-64
2022/11/03 11:36:20;;;;;;;3.88;1.55;;;13.20;1.00;;;;;;5024038;28;20334;-64
2022/11/03 11:39:09;;;;;;;5.25;1.70;;;13.20;1.00;;;;;;5030201;28;20263;-63
2022/11/03 11:42:04;;;;;;;6.75;1.70;;;13.20;1.00;;;;;;5023243;28;20574;-63
2022/11/03 11:45:02;;;;;;;6.35;1.85;;;13.20;1.00;;;;;;5043919;28;20842;-64
2022/11/03 11:47:47;;;;;;;8.55;2.03;;;13.20;1.00;;;;;;5030787;28;20200;-63
2022/11/03 11:50:30;;;;;;;8.30;2.40;;;13.30;1.00;;;;;;5027242;28;20363;-64
2022/11/03 11:53:20;;;;;;;6.75;1.70;;;13.30;1.00;;;;;;5035327;28;21054;-64
2022/11/03 11:55:53;;;;;;;4.97;1.50;;;13.30;1.00;;;;;;5027380;28;20224;-63
2022/11/03 11:58:29;;;;;;;5.00;1.50;;;13.30;1.00;;;;;;5041213;28;20231;-64
2022/11/03 12:01:01;;;;;;;10.40;1.77;;;13.30;1.00;;;;;;5044541;28;20204;-64
2022/11/03 12:03:31;;;;;;;4.57;1.67;;;13.50;1.00;;;;;;5031468;28;20200;-64
2022/11/03 12:05:59;;;;;;;7.35;1.70;;;13.40;1.00;;;;;;5025586;28;20217;-64
2022/11/03 12:08:29;;;;;;;2.75;1.38;;;13.40;1.00;;;;;;5024441;28;20205;-64
2022/11/03 12:10:58;;;;;;;6.60;1.85;;;13.40;1.00;;;;;;5032617;28;20229;-65
2022/11/03 12:13:51;;;;;;;6.40;1.70;;;13.30;1.00;;;;;;5030235;28;20303;-64
2022/11/03 12:16:31;;;;;;;6.38;1.83;;;13.30;1.00;;;;;;5045144;28;20824;-63
2022/11/03 12:19:37;;;;;;;4.28;1.80;;;13.30;1.00;;;;;;5025852;28;20208;-64
2022/11/03 12:22:07;;;;;;;4.00;1.50;;;13.30;1.00;;;;;;5000846;28;20326;-64
2022/11/03 12:24:49;;;;;;;8.35;1.67;;;13.20;1.00;;;;;;5029062;28;20203;-64
2022/11/03 12:27:36;;;;;;;6.45;1.80;;;13.20;1.00;;;;;;5031592;28;20208;-63
2022/11/03 12:30:05;;;;;;;5.68;1.65;;;13.20;1.00;;;;;;5037227;28;21059;-63
2022/11/03 12:32:32;;;;;;;3.45;1.77;;;13.30;1.00;;;;;;5026912;28;20235;-63
2022/11/03 12:34:59;;;;;;;7.28;2.10;;;13.30;1.00;;;;;;5023529;28;20235;-64
2022/11/03 12:37:27;;;;;;;12.35;2.15;;;13.30;1.00;;;;;;5012574;28;20216;-66
2022/11/03 12:39:54;;;;;;;4.28;1.85;;;13.30;1.00;;;;;;5027038;28;20208;-63
2022/11/03 12:42:23;;;;;;;7.30;2.10;;;13.30;1.00;;;;;;5038251;28;20209;-64
2022/11/03 12:44:50;;;;;;;4.28;1.85;;;13.30;1.00;;;;;;5032085;28;20207;-64
2022/11/03 12:47:17;;;;;;;4.85;1.55;;;13.30;1.00;;;;;;5029390;28;20217;-64
2022/11/03 12:49:44;;;;;;;8.13;2.30;;;13.30;1.00;;;;;;5028912;28;20204;-63
2022/11/03 12:52:11;;;;;;;4.78;1.73;;;13.30;1.00;;;;;;5023733;28;20232;-64
2022/11/03 12:54:40;;;;;;;10.40;1.80;;;13.30;1.00;;;;;;5009631;28;20502;-65
2022/11/03 12:57:08;;;;;;;4.72;1.80;;;13.30;1.00;;;;;;5025117;28;20784;-63
2022/11/03 12:59:34;;;;;;;6.97;2.20;;;13.30;1.00;;;;;;5034436;28;20201;-64
2022/11/03 13:02:01;;;;;;;6.30;1.67;;;13.30;1.00;;;;;;5015717;28;20646;-63
2022/11/03 13:04:28;;;;;;;6.32;2.15;;;13.30;1.00;;;;;;5018680;28;20201;-64
2022/11/03 13:06:55;;;;;;;5.80;2.15;;;13.30;1.00;;;;;;5009124;28;20909;-64
2022/11/03 13:09:22;;;;;;;7.82;1.60;;;13.30;1.00;;;;;;5022454;28;20196;-64
2022/11/03 13:14:35;;;;;;;5.28;1.88;;;13.30;1.00;;;;;;4991410;28;20245;-64
2022/11/03 13:17:02;;;;;;;4.03;2.00;;;13.20;1.00;;;;;;5000339;28;20217;-63
2022/11/03 13:19:29;;;;;;;4.80;1.85;;;13.20;1.00;;;;;;4992660;28;20289;-64
2022/11/03 13:21:56;;;;;;;7.18;2.17;;;13.20;1.00;;;;;;4990739;28;20220;-64
2022/11/03 13:24:23;;;;;;;6.30;1.98;;;13.10;1.00;;;;;;4960078;28;20210;-64
2022/11/03 13:26:51;;;;;;;7.00;1.73;;;13.10;1.00;;;;;;5004092;28;20198;-64
2022/11/03 13:29:18;;;;;;;8.45;1.63;;;13.10;1.00;;;;;;4992647;28;20209;-64
2022/11/03 13:31:45;;;;;;;3.28;1.30;;;13.10;1.00;;;;;;4987065;28;20230;-64